Time;durP1;ratioP1;P1;durP2;ratioP2;P2;SDS_P1;SDS_P2;PMS_P1;PMS_P2;Temp;Humidity;BMP_temperature;BMP_pressure;BME280_temperature;BME280_humidity;BME280_pressure;Samples;Min_cycle;Max_cycle;Signal;HPM_P1;HPM_P2
2023/05/07 00:02:12;;;;;;;3.67;3.07;;;;;;;14.25;100.00;101601.78;5130661;27;20741;-37
2023/05/07 00:04:38;;;;;;;3.20;2.67;;;;;;;14.29;100.00;101616.56;5130810;27;20270;-38
2023/05/07 00:07:04;;;;;;;4.07;2.88;;;;;;;14.27;100.00;101610.56;5130534;27;20023;-37
2023/05/07 00:09:29;;;;;;;3.35;2.58;;;;;;;14.17;100.00;101595.66;5130718;27;20490;-37
2023/05/07 00:11:55;;;;;;;4.47;2.60;;;;;;;14.28;100.00;101617.66;5122881;28;20051;-37
2023/05/07 00:14:20;;;;;;;;;;;;;;;14.38;100.00;101610.53;5117296;28;20482;-37
2023/05/07 00:16:46;;;;;;;3.55;2.42;;;;;;;14.29;100.00;101603.78;5117649;28;20360;-37
2023/05/07 00:19:11;;;;;;;;;;;;;;;14.40;100.00;101604.88;5116930;28;20023;-37
2023/05/07 00:21:37;;;;;;;4.73;3.00;;;;;;;14.35;100.00;101599.31;5117109;28;19992;-37
2023/05/07 00:24:02;;;;;;;4.65;2.30;;;;;;;14.34;100.00;101589.47;5116991;28;20326;-38
2023/05/07 00:26:27;;;;;;;;;;;;;;;14.45;100.00;101596.84;5117409;28;20114;-37
2023/05/07 00:28:53;;;;;;;3.27;2.67;;;;;;;14.32;100.00;101594.34;5116883;28;19911;-37
2023/05/07 00:31:18;;;;;;;3.60;2.28;;;;;;;14.31;100.00;101590.81;5117127;28;20666;-38
2023/05/07 00:33:43;;;;;;;;;;;;;;;14.40;100.00;101589.38;5116964;28;20024;-37
2023/05/07 00:36:09;;;;;;;4.03;2.87;;;;;;;14.35;100.00;101593.88;5116768;28;19911;-38
2023/05/07 00:38:34;;;;;;;3.67;2.85;;;;;;;14.33;100.00;101587.84;5116975;28;20269;-38
2023/05/07 00:41:00;;;;;;;3.95;2.90;;;;;;;14.29;100.00;101587.47;5116669;28;20422;-37
2023/05/07 00:43:25;;;;;;;4.25;3.03;;;;;;;14.26;100.00;101587.97;5116070;28;20030;-37
2023/05/07 00:45:51;;;;;;;;;;;;;;;14.40;100.00;101591.28;5117134;27;20425;-37
2023/05/07 00:48:17;;;;;;;4.30;3.13;;;;;;;14.31;100.00;101589.97;5116270;28;20347;-37
2023/05/07 00:50:43;;;;;;;3.30;3.00;;;;;;;14.32;100.00;101581.56;5115596;28;20464;-37
2023/05/07 00:53:08;;;;;;;;;;;;;;;14.40;100.00;101577.66;5116588;28;20460;-37
2023/05/07 00:55:35;;;;;;;4.35;3.40;;;;;;;14.25;100.00;101569.16;5116399;28;19907;-37
2023/05/07 00:58:00;;;;;;;4.22;3.30;;;;;;;14.15;100.00;101554.28;5116146;28;20116;-37
2023/05/07 01:00:25;;;;;;;;;;;;;;;14.40;100.00;101583.13;5117104;28;20134;-37
2023/05/07 01:02:51;;;;;;;4.47;3.73;;;;;;;14.27;100.00;101577.91;5116292;28;20355;-37
2023/05/07 01:05:18;;;;;;;;;;;;;;;14.39;100.00;101579.53;5116185;28;20269;-37
2023/05/07 01:07:45;;;;;;;4.32;3.80;;;;;;;14.30;100.00;101578.28;5115582;28;19911;-37
2023/05/07 01:10:11;;;;;;;6.07;3.60;;;;;;;14.34;100.00;101575.88;5116201;28;20030;-37
2023/05/07 01:12:38;;;;;;;5.82;3.90;;;;;;;14.32;100.00;101584.28;5115798;28;20030;-37
2023/05/07 01:15:06;;;;;;;3.95;3.33;;;;;;;14.26;100.00;101574.38;5116643;27;20412;-37
2023/05/07 01:17:35;;;;;;;4.55;3.47;;;;;;;14.36;100.00;101571.06;5115626;28;20038;-37
2023/05/07 01:20:01;;;;;;;4.35;3.80;;;;;;;14.35;100.00;101572.13;5115869;28;20038;-37
2023/05/07 01:22:37;;;;;;;4.93;4.10;;;;;;;14.33;100.00;101568.78;5115392;28;20519;-38
2023/05/07 01:25:07;;;;;;;;;;;;;;;14.39;100.00;101571.38;5116101;28;20257;-37
2023/05/07 01:27:33;;;;;;;4.97;4.00;;;;;;;14.27;100.00;101567.84;5115534;28;19934;-37
2023/05/07 01:29:59;;;;;;;4.38;3.97;;;;;;;14.23;100.00;101566.66;5115397;28;20035;-37
2023/05/07 01:32:50;;;;;;;4.93;3.97;;;;;;;14.26;100.00;101554.50;5116035;27;20040;-37
2023/05/07 01:35:20;;;;;;;5.05;4.55;;;;;;;14.24;100.00;101552.00;5104602;28;20452;-37
2023/05/07 01:37:47;;;;;;;5.05;4.38;;;;;;;14.25;100.00;101550.97;5115643;28;20098;-37
2023/05/07 01:40:13;;;;;;;5.18;4.60;;;;;;;14.14;100.00;101554.50;5114850;28;20129;-37
2023/05/07 01:42:38;;;;;;;;;;;;;;;14.28;100.00;101549.63;5115381;28;20034;-37
2023/05/07 01:45:05;;;;;;;5.30;4.57;;;;;;;14.15;100.00;101548.84;5115177;28;19908;-37
2023/05/07 01:47:31;;;;;;;5.80;4.50;;;;;;;14.07;100.00;101546.47;5115690;28;20028;-37
2023/05/07 01:49:57;;;;;;;5.07;4.57;;;;;;;14.12;100.00;101551.19;5115089;28;20027;-37
2023/05/07 01:52:22;;;;;;;;;;;;;;;14.23;100.00;101549.53;5115529;28;20027;-37
2023/05/07 01:54:47;;;;;;;6.57;5.03;;;;;;;14.17;100.00;101551.31;5114725;28;20298;-37
2023/05/07 01:57:13;;;;;;;;;;;;;;;14.24;100.00;101546.56;5115976;28;20031;-37
2023/05/07 01:59:38;;;;;;;5.17;4.67;;;;;;;14.16;100.00;101547.75;5114727;28;19911;-37
2023/05/07 02:02:03;;;;;;;5.93;4.85;;;;;;;14.14;100.00;101546.34;5115169;28;20258;-37
2023/05/07 02:04:29;;;;;;;5.72;5.22;;;;;;;14.23;100.00;101552.25;5115116;28;20367;-38
2023/05/07 02:06:54;;;;;;;;;;;;;;;14.30;100.00;101550.22;5115484;28;20036;-37
2023/05/07 02:09:19;;;;;;;7.83;5.20;;;;;;;14.18;100.00;101547.53;5114683;28;19911;-37
2023/05/07 02:11:45;;;;;;;6.35;5.75;;;;;;;14.18;100.00;101558.41;5115258;28;20245;-37
2023/05/07 02:14:10;;;;;;;;;;;;;;;14.27;100.00;101550.72;5114980;28;20034;-37
2023/05/07 02:16:36;;;;;;;7.80;6.15;;;;;;;14.22;100.00;101542.44;5114385;28;19954;-37
2023/05/07 02:19:01;;;;;;;;;;;;;;;14.28;100.00;101544.19;5114977;28;20077;-38
2023/05/07 02:21:26;;;;;;;7.93;6.80;;;;;;;14.20;100.00;101544.56;5114989;28;20064;-38
2023/05/07 02:23:52;;;;;;;7.00;6.40;;;;;;;14.20;100.00;101547.28;5114228;28;20039;-37
2023/05/07 02:26:17;;;;;;;;;;;;;;;14.25;100.00;101547.38;5115202;28;20055;-37
2023/05/07 02:28:43;;;;;;;6.95;6.28;;;;;;;14.14;100.00;101549.06;5114115;28;20027;-37
2023/05/07 02:31:08;;;;;;;;;;;;;;;14.21;100.00;101546.22;5115051;28;20054;-37
2023/05/07 02:33:35;;;;;;;7.57;6.73;;;;;;;14.11;100.00;101550.38;5114051;28;19907;-37
2023/05/07 02:36:07;;;;;;;7.93;7.13;;;;;;;14.14;100.00;101552.59;5114300;28;20296;-37
2023/05/07 02:38:34;;;;;;;7.72;6.93;;;;;;;14.15;100.00;101548.84;5115020;28;20372;-37
2023/05/07 02:40:59;;;;;;;8.95;8.07;;;;;;;14.15;100.00;101548.84;5114950;27;20081;-37
2023/05/07 02:43:24;;;;;;;;;;;;;;;14.25;100.00;101552.81;5114593;28;20020;-37
2023/05/07 02:46:03;;;;;;;9.45;8.52;;;;;;;14.14;100.00;101558.03;5114103;28;19907;-37
2023/05/07 02:48:29;;;;;;;8.20;7.40;;;;;;;14.10;100.00;101543.28;5113883;28;20028;-37
2023/05/07 02:50:54;;;;;;;;;;;;;;;14.20;100.00;101555.44;5113299;28;20055;-37
2023/05/07 02:53:19;;;;;;;9.27;8.40;;;;;;;14.16;100.00;101545.03;5113793;28;19907;-37
2023/05/07 02:55:45;;;;;;;10.02;8.48;;;;;;;14.12;100.00;101549.31;5114083;28;20268;-37
2023/05/07 02:58:10;;;;;;;;;;;;;;;14.22;100.00;101547.88;5114459;28;20424;-37
2023/05/07 03:00:35;;;;;;;9.23;8.38;;;;;;;14.15;100.00;101548.84;5113996;28;20291;-37
2023/05/07 03:03:01;;;;;;;10.77;9.77;;;;;;;14.13;100.00;101544.69;5114424;28;20026;-37
2023/05/07 03:05:26;;;;;;;10.38;9.38;;;;;;;14.09;100.00;101535.34;5113881;28;20024;-37
2023/05/07 03:07:51;;;;;;;;;;;;;;;14.20;100.00;101544.56;5114376;28;20031;-37
2023/05/07 03:10:18;;;;;;;9.63;8.73;;;;;;;14.12;100.00;101549.31;5113957;28;19916;-37
2023/05/07 03:12:43;;;;;;;11.10;9.80;;;;;;;14.09;100.00;101538.88;5113537;28;20265;-37
2023/05/07 03:15:10;;;;;;;10.45;9.43;;;;;;;14.10;100.00;101547.88;5114660;28;20035;-37
2023/05/07 03:17:35;;;;;;;10.60;9.57;;;;;;;14.03;100.00;101531.69;5114611;28;20026;-37
2023/05/07 03:20:01;;;;;;;10.27;9.27;;;;;;;14.09;100.00;101538.06;5114121;28;20523;-37
2023/05/07 03:22:26;;;;;;;;;;;;;;;14.17;100.00;101545.88;5114515;28;20016;-37
2023/05/07 03:24:52;;;;;;;9.93;8.90;;;;;;;14.13;100.00;101545.50;5113457;28;19908;-37
2023/05/07 03:27:17;;;;;;;11.35;9.80;;;;;;;14.09;100.00;101548.94;5114024;28;20269;-37
2023/05/07 03:29:42;;;;;;;;;;;;;;;14.15;100.00;101545.25;5113796;28;20031;-37
2023/05/07 03:32:08;;;;;;;8.77;7.97;;;;;;;14.02;100.00;101538.19;5113669;28;20363;-37
2023/05/07 03:34:33;;;;;;;;;;;;;;;14.13;100.00;101544.69;5114110;28;20031;-37
2023/05/07 03:36:58;;;;;;;10.52;8.30;;;;;;;14.07;100.00;101532.88;5113922;28;20432;-37
2023/05/07 03:39:23;;;;;;;9.52;8.63;;;;;;;14.07;100.00;101530.16;5113198;28;20024;-37
2023/05/07 03:41:49;;;;;;;;;;;;;;;14.16;100.00;101534.16;5114617;28;20083;-37
2023/05/07 03:44:14;;;;;;;9.60;8.70;;;;;;;14.06;100.00;101524.97;5113575;28;19931;-37
2023/05/07 03:46:40;;;;;;;;;;;;;;;14.15;100.00;101528.94;5114910;28;20031;-37
2023/05/07 03:49:05;;;;;;;10.30;9.27;;;;;;;14.03;100.00;101531.69;5117405;28;19914;-37
2023/05/07 03:51:30;;;;;;;;;;;;;;;14.12;100.00;101543.84;5118156;28;20038;-37
2023/05/07 03:53:57;;;;;;;9.95;9.00;;;;;;;14.05;100.00;101540.41;5117305;28;19919;-38
2023/05/07 03:56:22;;;;;;;9.50;8.55;;;;;;;13.98;100.00;101525.31;5117843;28;20035;-38
2023/05/07 03:58:48;;;;;;;;;;;;;;;14.13;100.00;101550.13;5117470;27;20039;-38
2023/05/07 04:01:13;;;;;;;11.33;8.67;;;;;;;14.03;100.00;101544.44;5117594;28;19915;-38
2023/05/07 04:03:38;;;;;;;8.95;8.15;;;;;;;13.93;100.00;101523.28;5116790;28;20266;-37
2023/05/07 04:06:04;;;;;;;9.88;8.98;;;;;;;14.02;100.00;101543.63;5117139;28;20034;-37
2023/05/07 04:08:29;;;;;;;;;;;;;;;14.09;100.00;101549.75;5117475;28;20500;-37
2023/05/07 04:10:58;;;;;;;9.88;8.98;;;;;;;14.02;100.00;101553.69;5117000;28;20360;-37
2023/05/07 04:13:24;;;;;;;9.25;8.25;;;;;;;14.01;100.00;101560.19;5116909;28;20114;-37
2023/05/07 04:15:49;;;;;;;13.93;9.70;;;;;;;13.99;100.00;101548.72;5116649;28;20062;-37
2023/05/07 04:18:15;;;;;;;10.15;9.00;;;;;;;13.98;100.00;101557.94;5116671;28;20085;-37
2023/05/07 04:20:41;;;;;;;;;;;;;;;14.06;100.00;101557.59;5117258;27;20035;-37
2023/05/07 04:23:06;;;;;;;9.40;8.50;;;;;;;14.03;100.00;101553.44;5116783;28;19963;-37
2023/05/07 04:25:32;;;;;;;9.80;8.88;;;;;;;13.86;100.00;101531.56;5116509;28;20110;-37
2023/05/07 04:27:57;;;;;;;11.63;9.57;;;;;;;13.99;100.00;101560.41;5117024;28;20031;-37
2023/05/07 04:30:23;;;;;;;10.05;9.10;;;;;;;13.96;100.00;101552.75;5116672;28;20088;-37
2023/05/07 04:32:48;;;;;;;;;;;;;;;14.07;100.00;101567.41;5116815;28;20020;-37
2023/05/07 04:35:14;;;;;;;9.37;8.47;;;;;;;13.98;100.00;101557.94;5116285;28;19950;-37
2023/05/07 04:37:39;;;;;;;12.00;9.30;;;;;;;13.94;100.00;101560.28;5116488;28;20747;-37
2023/05/07 04:40:05;;;;;;;10.23;9.23;;;;;;;13.96;100.00;101566.34;5117309;28;20034;-37
2023/05/07 04:42:31;;;;;;;;;;;;;;;14.06;100.00;101566.56;5116971;28;20034;-37
2023/05/07 04:44:56;;;;;;;13.05;9.93;;;;;;;14.02;100.00;101570.81;5116375;28;19908;-37
2023/05/07 04:47:21;;;;;;;11.20;10.10;;;;;;;13.97;100.00;101573.44;5116686;28;20024;-37
2023/05/07 04:49:47;;;;;;;10.27;9.18;;;;;;;13.91;100.00;101563.50;5116330;28;20046;-37
2023/05/07 04:52:12;;;;;;;;;;;;;;;14.03;100.00;101575.19;5116339;28;20036;-37
2023/05/07 04:54:37;;;;;;;10.90;9.90;;;;;;;13.97;100.00;101567.97;5116681;28;20006;-37
2023/05/07 04:57:05;;;;;;;10.70;9.80;;;;;;;13.99;100.00;101567.75;5116403;28;20265;-37
2023/05/07 04:59:32;;;;;;;11.88;10.77;;;;;;;13.98;100.00;101576.97;5115637;28;20685;-37
2023/05/07 05:01:57;;;;;;;11.40;10.30;;;;;;;14.00;100.00;101570.22;5115907;28;20124;-37
2023/05/07 05:04:22;;;;;;;;;;;;;;;14.08;100.00;101569.88;5116443;28;20036;-37
2023/05/07 05:06:48;;;;;;;11.87;10.80;;;;;;;14.01;100.00;101571.06;5116036;28;19908;-37
2023/05/07 05:09:14;;;;;;;11.82;10.68;;;;;;;13.97;100.00;101567.16;5115965;28;20805;-37
2023/05/07 05:11:39;;;;;;;12.80;11.68;;;;;;;13.95;100.00;101561.13;5116779;28;20111;-37
2023/05/07 05:14:05;;;;;;;11.88;10.88;;;;;;;14.02;100.00;101559.13;5115760;28;20031;-37
2023/05/07 05:16:30;;;;;;;;;;;;;;;14.18;100.00;101577.44;5116473;28;20475;-37
2023/05/07 05:18:55;;;;;;;12.73;11.25;;;;;;;14.15;100.00;101586.91;5115940;28;19908;-37
2023/05/07 05:21:21;;;;;;;12.00;10.90;;;;;;;14.22;100.00;101585.97;5115855;28;20228;-37
2023/05/07 05:23:47;;;;;;;;;;;;;;;14.28;100.00;101585.00;5116583;28;20093;-37
2023/05/07 05:26:12;;;;;;;13.10;11.80;;;;;;;14.25;100.00;101580.88;5116121;28;20296;-37
2023/05/07 05:28:37;;;;;;;;;;;;;;;14.36;100.00;101595.53;5116795;28;20063;-37
2023/05/07 05:31:03;;;;;;;13.32;11.50;;;;;;;14.33;100.00;101588.66;5115796;28;19914;-37
2023/05/07 05:33:28;;;;;;;;;;;;;;;14.39;100.00;101598.59;5116411;28;20080;-38
2023/05/07 05:35:54;;;;;;;13.87;12.40;;;;;;;14.38;100.00;101596.13;5115390;28;20386;-38
2023/05/07 05:38:20;;;;;;;15.02;13.52;;;;;;;14.36;100.00;101588.19;5115300;28;20293;-38
2023/05/07 05:40:46;;;;;;;13.65;12.35;;;;;;;14.37;100.00;101600.72;5115206;28;20035;-38
2023/05/07 05:43:11;;;;;;;14.02;12.77;;;;;;;14.40;100.00;101603.00;5114931;28;20027;-37
2023/05/07 05:45:36;;;;;;;;;;;;;;;14.48;100.00;101600.97;5115611;28;20027;-37
2023/05/07 05:48:02;;;;;;;14.37;12.97;;;;;;;14.43;100.00;101604.38;5115637;28;19907;-37
2023/05/07 05:50:27;;;;;;;14.32;12.80;;;;;;;14.36;100.00;101603.69;5115635;28;20270;-37
2023/05/07 05:52:52;;;;;;;;;;;;;;;14.36;100.00;101604.53;5116240;28;20345;-38
2023/05/07 05:55:18;;;;;;;14.07;12.65;;;;;;;14.30;100.00;101599.19;5114976;28;19930;-37
2023/05/07 05:57:43;;;;;;;14.55;13.25;;;;;;;14.26;100.00;101589.88;5114909;28;20035;-37
2023/05/07 06:00:09;;;;;;;;;;;;;;;14.43;100.00;101605.22;5115089;28;20047;-37
2023/05/07 06:02:34;;;;;;;14.95;13.10;;;;;;;14.43;100.00;101598.94;5115073;28;20344;-37
2023/05/07 06:05:00;;;;;;;;;;;;;;;14.51;100.00;101601.34;5115809;28;20034;-37
2023/05/07 06:07:25;;;;;;;14.18;12.77;;;;;;;14.40;100.00;101580.41;5114804;27;19918;-37
2023/05/07 06:09:50;;;;;;;;;;;;;;;14.62;100.00;101608.66;5114651;28;20046;-37
2023/05/07 06:12:16;;;;;;;14.60;13.30;;;;;;;14.63;100.00;101607.59;5114678;28;19911;-37
2023/05/07 06:14:42;;;;;;;;;;;;;;;14.67;100.00;101606.03;5115054;28;20032;-37
2023/05/07 06:17:08;;;;;;;15.57;14.07;;;;;;;14.67;100.00;101606.03;5114637;28;19969;-36
2023/05/07 06:19:33;;;;;;;15.87;14.20;;;;;;;14.64;100.00;101611.13;5115109;28;20023;-38
2023/05/07 06:22:01;;;;;;;16.05;14.55;;;;;;;14.69;100.00;101603.09;5114540;28;20307;-37
2023/05/07 06:24:26;;;;;;;16.13;14.48;;;;;;;14.60;100.00;101597.19;5114461;28;20110;-37
2023/05/07 06:26:51;;;;;;;16.30;14.80;;;;;;;14.72;100.00;101607.22;5114154;28;20123;-36
2023/05/07 06:29:17;;;;;;;;;;;;;;;14.85;100.00;101615.97;5114914;28;20061;-36
2023/05/07 06:31:42;;;;;;;14.20;12.87;;;;;;;14.83;100.00;101614.53;5113984;28;19968;-36
2023/05/07 06:34:07;;;;;;;;;;;;;;;14.96;100.00;101608.81;5114485;28;20286;-37
2023/05/07 06:36:33;;;;;;;15.15;13.85;;;;;;;14.98;100.00;101612.09;5114575;28;19994;-38
2023/05/07 06:38:58;;;;;;;;;;;;;;;15.08;100.00;101611.50;5114386;28;20092;-37
2023/05/07 06:41:23;;;;;;;15.15;13.75;;;;;;;15.02;100.00;101612.47;5114403;28;19955;-37
2023/05/07 06:43:48;;;;;;;;;;;;;;;15.13;100.00;101617.06;5114581;28;20027;-37
2023/05/07 06:46:14;;;;;;;14.70;13.50;;;;;;;15.04;100.00;101619.34;5114490;28;19911;-38
2023/05/07 06:48:40;;;;;;;15.38;14.07;;;;;;;15.03;100.00;101614.97;5114170;28;20267;-37
2023/05/07 06:51:05;;;;;;;15.40;13.80;;;;;;;15.05;100.00;101618.25;5114414;28;20024;-37
2023/05/07 06:53:30;;;;;;;;;;;;;;;15.15;100.00;101623.91;5114266;28;20024;-37
2023/05/07 06:55:56;;;;;;;16.33;14.60;;;;;;;15.11;100.00;101624.63;5114091;28;20318;-38
2023/05/07 06:58:22;;;;;;;15.90;14.43;;;;;;;15.09;100.00;101613.16;5113980;28;20265;-37
2023/05/07 07:00:47;;;;;;;;;;;;;;;15.21;100.00;101630.28;5114829;28;20056;-37
2023/05/07 07:03:13;;;;;;;15.02;13.43;;;;;;;15.11;100.00;101617.28;5113997;28;19916;-37
2023/05/07 07:05:40;;;;;;;15.60;14.20;;;;;;;15.18;100.00;101630.78;5114565;28;20031;-37
2023/05/07 07:08:06;;;;;;;15.25;13.85;;;;;;;15.16;100.00;101632.91;5113861;28;20520;-37
2023/05/07 07:10:31;;;;;;;16.10;14.50;;;;;;;15.18;100.00;101628.88;5114249;28;20032;-38
2023/05/07 07:12:56;;;;;;;;;;;;;;;15.32;100.00;101634.03;5114654;28;20385;-37
2023/05/07 07:15:22;;;;;;;15.15;13.82;;;;;;;15.27;100.00;101625.75;5114752;28;20013;-38
2023/05/07 07:17:47;;;;;;;;;;;;;;;15.34;100.00;101626.44;5114310;28;20106;-38
2023/05/07 07:20:13;;;;;;;14.55;13.25;;;;;;;15.31;100.00;101621.47;5113524;28;19911;-37
2023/05/07 07:22:38;;;;;;;;;;;;;;;15.36;100.00;101629.75;5117744;28;20030;-37
2023/05/07 07:25:04;;;;;;;15.57;14.03;;;;;;;15.23;100.00;101630.06;5118555;28;19915;-38
2023/05/07 07:27:29;;;;;;;15.38;14.02;;;;;;;15.27;100.00;101626.56;5118399;28;20262;-37
2023/05/07 07:29:55;;;;;;;;;;;;;;;15.34;100.00;101626.44;5118289;28;20070;-36
2023/05/07 07:32:20;;;;;;;15.00;13.60;;;;;;;15.20;100.00;101615.00;5117772;28;19968;-37
2023/05/07 07:34:46;;;;;;;14.13;12.93;;;;;;;15.43;100.00;101635.88;5118266;28;20307;-37
2023/05/07 07:37:11;;;;;;;;;;;;;;;15.55;100.00;101636.66;5119013;28;20023;-38
2023/05/07 07:39:39;;;;;;;12.87;11.77;;;;;;;15.63;100.00;101646.34;5117826;28;20019;-37
2023/05/07 07:42:05;;;;;;;14.30;12.93;;;;;;;15.72;100.00;101639.44;5117878;28;20253;-38
2023/05/07 07:44:30;;;;;;;14.55;13.20;;;;;;;15.69;100.00;101635.31;5117548;28;20028;-37
2023/05/07 07:46:55;;;;;;;;;;;;;;;15.84;100.00;101647.56;5118047;27;20031;-37
2023/05/07 07:49:20;;;;;;;13.32;12.02;;;;;;;15.76;100.00;101642.50;5117428;28;19907;-38
2023/05/07 07:51:46;;;;;;;;;;;;;;;15.87;100.00;101641.63;5117842;28;20063;-38
2023/05/07 07:54:11;;;;;;;12.80;11.70;;;;;;;15.73;100.00;101638.38;5117331;28;20006;-37
2023/05/07 07:56:36;;;;;;;;;;;;;;;15.90;100.00;101655.56;5118358;27;20261;-37
2023/05/07 07:59:02;;;;;;;12.25;11.23;;;;;;;15.77;100.00;101642.25;5117335;28;19929;-37
2023/05/07 08:01:29;;;;;;;;;;;;;;;16.02;100.00;101643.78;5118092;28;20059;-37
2023/05/07 08:03:55;;;;;;;12.90;11.70;;;;;;;16.02;100.00;101644.59;5117751;28;20010;-37
2023/05/07 08:06:20;;;;;;;;;;;;;;;16.06;100.00;101653.13;5118199;28;20027;-38
2023/05/07 08:08:45;;;;;;;12.57;11.52;;;;;;;16.00;100.00;101656.81;5116869;28;19911;-37
2023/05/07 08:11:11;;;;;;;;;;;;;;;16.10;100.00;101644.16;5117512;27;20042;-37
2023/05/07 08:13:37;;;;;;;11.73;10.63;;;;;;;16.10;100.00;101641.44;5116678;28;19915;-38
2023/05/07 08:16:03;;;;;;;12.23;11.13;;;;;;;16.30;100.00;101648.28;5117014;28;20028;-37
2023/05/07 08:18:29;;;;;;;;;;;;;;;16.44;100.00;101649.59;5116677;28;20024;-37
2023/05/07 08:20:54;;;;;;;12.53;11.53;;;;;;;16.41;100.00;101652.84;5117377;28;19911;-37
2023/05/07 08:23:20;;;;;;;;;;;;;;;16.55;100.00;101653.31;5117493;28;20738;-37
2023/05/07 08:25:45;;;;;;;12.18;11.02;;;;;;;16.57;100.00;101657.44;5116584;28;19915;-38
2023/05/07 08:28:10;;;;;;;;;;;;;;;16.61;100.00;101658.59;5117222;27;20428;-38
2023/05/07 08:30:36;;;;;;;12.30;11.18;;;;;;;16.45;100.00;101660.28;5116371;28;20356;-35
2023/05/07 08:33:01;;;;;;;;;;;;;;;16.53;100.00;101666.38;5116826;28;20035;-36
2023/05/07 08:35:27;;;;;;;11.33;10.33;;;;;;;16.43;100.00;101628.84;5116436;28;19950;-37
2023/05/07 08:37:53;;;;;;;11.88;10.60;;;;;;;16.63;100.00;101663.78;5116503;28;20307;-37
2023/05/07 08:40:18;;;;;;;;;;;;;;;16.68;100.00;101667.41;5117472;28;20062;-37
2023/05/07 08:42:44;;;;;;;11.10;10.07;;;;;;;16.49;100.00;101649.66;5115185;28;19980;-37
2023/05/07 08:45:10;;;;;;;;;;;;;;;16.66;100.00;101660.56;5117158;28;20032;-37
2023/05/07 08:47:50;;;;;;;11.45;10.35;;;;;;;16.78;100.00;101661.31;5116339;28;19955;-37
2023/05/07 08:50:16;;;;;;;10.43;9.50;;;;;;;16.82;100.00;101661.63;5116594;28;20032;-36
2023/05/07 08:52:41;;;;;;;;;;;;;;;17.02;100.00;101658.34;5116758;28;20031;-36
2023/05/07 08:55:08;;;;;;;10.48;9.52;;;;;;;17.12;100.00;101659.28;5116544;27;19922;-36
2023/05/07 08:57:33;;;;;;;10.90;10.00;;;;;;;17.23;100.00;101671.19;5116463;28;20403;-36
2023/05/07 08:59:59;;;;;;;;;;;;;;;17.43;100.00;101660.47;5116233;28;20023;-36
2023/05/07 09:02:24;;;;;;;9.67;8.77;;;;;;;17.43;100.00;101674.16;5117172;28;19968;-36
2023/05/07 09:04:50;;;;;;;;;;;;;;;17.49;100.00;101680.50;5116709;28;20273;-38
2023/05/07 09:07:16;;;;;;;11.25;10.15;;;;;;;17.43;100.00;101656.91;5116722;28;19907;-36
2023/05/07 09:09:41;;;;;;;;;;;;;;;17.63;100.00;101665.31;5117142;28;20027;-36
2023/05/07 09:12:07;;;;;;;11.10;10.10;;;;;;;17.64;100.00;101666.97;5116382;28;19918;-36
2023/05/07 09:14:32;;;;;;;;;;;;;;;17.75;100.00;101671.47;5116240;28;20264;-36
2023/05/07 09:16:57;;;;;;;10.05;9.15;;;;;;;17.64;100.00;101644.28;5116579;28;19907;-36
2023/05/07 09:19:24;;;;;;;10.00;9.07;;;;;;;17.71;100.00;101662.13;5115403;28;20075;-36
2023/05/07 09:21:49;;;;;;;9.93;8.95;;;;;;;17.73;100.00;101659.97;5116249;28;20030;-36
2023/05/07 09:24:15;;;;;;;;;;;;;;;17.90;100.00;101667.25;5115736;28;20019;-36
2023/05/07 09:26:41;;;;;;;8.77;8.07;;;;;;;17.83;100.00;101664.72;5115572;28;20006;-36
2023/05/07 09:29:07;;;;;;;;;;;;;;;17.95;100.00;101673.56;5116836;28;20032;-36
2023/05/07 09:31:32;;;;;;;11.02;9.45;;;;;;;17.79;100.00;101657.28;5115779;27;19908;-36
2023/05/07 09:33:58;;;;;;;;;;;;;;;17.97;100.00;101670.59;5115911;28;20475;-37
2023/05/07 09:36:24;;;;;;;9.57;8.77;;;;;;;18.00;100.00;101668.16;5115142;28;19917;-37
2023/05/07 09:38:49;;;;;;;;;;;;;;;18.10;100.00;101667.41;5115773;28;20116;-37
2023/05/07 09:41:15;;;;;;;10.88;9.45;;;;;;;18.06;100.00;101673.69;5114999;28;20080;-37
2023/05/07 09:43:40;;;;;;;10.18;9.13;;;;;;;18.06;100.00;101662.75;5106369;27;20024;-37
2023/05/07 09:46:07;;;;;;;;;;;;;;;18.24;100.00;101665.88;5094864;28;20038;-37
2023/05/07 09:48:39;;;;;;;10.00;8.95;;;;;;;18.26;100.00;101669.19;5096368;28;20286;-37
2023/05/07 09:51:21;;;;;;;9.35;8.48;;;;;;;18.24;100.00;101671.34;5094731;28;20024;-37
2023/05/07 09:53:48;;;;;;;9.77;8.73;;;;;;;18.28;100.00;101667.00;5097480;28;21897;-37
2023/05/07 09:56:17;;;;;;;8.70;7.85;;;;;;;18.27;100.00;101670.84;5114734;28;20391;-37
2023/05/07 09:58:43;;;;;;;8.93;8.13;;;;;;;18.30;100.00;101663.19;5115702;28;20026;-37
2023/05/07 10:01:10;;;;;;;8.40;7.68;;;;;;;18.39;100.00;101683.50;5114880;28;20057;-37
2023/05/07 10:03:36;;;;;;;9.68;7.82;;;;;;;18.28;100.00;101661.53;5114235;28;20446;-37
2023/05/07 10:06:01;;;;;;;;;;;;;;;18.51;100.00;101670.47;5099550;28;20111;-37
2023/05/07 10:08:27;;;;;;;9.15;6.85;;;;;;;18.42;100.00;101667.38;5103765;28;20398;-37
2023/05/07 10:10:53;;;;;;;7.78;6.40;;;;;;;18.49;100.00;101665.22;5114967;28;20038;-37
2023/05/07 10:13:18;;;;;;;;;;;;;;;18.67;100.00;101676.84;5115167;28;20031;-37
2023/05/07 10:15:44;;;;;;;7.43;6.72;;;;;;;18.62;100.00;101663.13;5109068;28;19997;-38
2023/05/07 10:18:11;;;;;;;8.02;7.30;;;;;;;18.76;100.00;101675.31;5114931;28;20023;-38
2023/05/07 10:20:38;;;;;;;7.97;7.18;;;;;;;18.77;100.00;101669.53;5113575;28;20232;-38
2023/05/07 10:23:05;;;;;;;7.70;7.05;;;;;;;18.78;100.00;101662.97;5115392;28;20031;-36
2023/05/07 10:25:32;;;;;;;8.38;7.55;;;;;;;18.74;100.00;101670.09;5112392;28;20467;-36
2023/05/07 10:28:08;;;;;;;9.60;7.55;;;;;;;18.74;100.00;101675.56;5113038;28;20059;-36
2023/05/07 10:30:40;;;;;;;7.88;7.22;;;;;;;18.77;100.00;101671.47;5114083;28;20655;-36
2023/05/07 10:33:08;;;;;;;8.52;7.68;;;;;;;18.70;100.00;101681.84;5113957;28;20031;-36
2023/05/07 10:35:45;;;;;;;8.90;6.97;;;;;;;18.80;100.00;101672.84;5114298;28;20047;-36
2023/05/07 10:38:11;;;;;;;7.53;6.82;;;;;;;18.93;100.00;101678.66;5108665;28;20024;-37
2023/05/07 10:40:36;;;;;;;;;;;;;;;19.05;100.00;101670.25;5114626;28;20110;-37
2023/05/07 10:43:05;;;;;;;7.22;6.53;;;;;;;19.06;100.00;101679.28;5115017;28;19926;-37
2023/05/07 10:45:31;;;;;;;8.15;6.38;;;;;;;19.04;100.00;101679.56;5113338;28;20028;-37
2023/05/07 10:48:16;;;;;;;7.50;6.13;;;;;;;19.10;100.00;101678.47;5111755;28;20043;-37
2023/05/07 10:50:47;;;;;;;7.93;7.03;;;;;;;18.98;100.00;101669.63;5114186;28;20100;-37
2023/05/07 10:53:19;;;;;;;7.10;6.43;;;;;;;19.03;100.00;101683.38;5114932;28;20430;-37
2023/05/07 10:55:47;;;;;;;7.50;6.68;;;;;;;18.98;100.00;101669.63;5113887;28;20032;-37
2023/05/07 10:58:22;;;;;;;6.82;6.20;;;;;;;19.17;100.00;101673.56;5098847;28;20032;-37
2023/05/07 11:00:49;;;;;;;8.18;7.25;;;;;;;19.07;100.00;101670.78;5093770;28;20059;-37
2023/05/07 11:03:14;;;;;;;7.97;7.18;;;;;;;19.22;100.00;101668.09;5099484;28;20031;-37
2023/05/07 11:05:40;;;;;;;;;;;;;;;19.36;100.00;101667.59;5113729;28;20027;-37
2023/05/07 11:08:06;;;;;;;8.07;7.28;;;;;;;19.27;100.00;101673.59;5103301;28;19920;-37
2023/05/07 11:10:58;;;;;;;7.93;7.10;;;;;;;19.43;100.00;101665.44;5108668;28;20042;-38
2023/05/07 11:13:52;;;;;;;7.88;7.07;;;;;;;19.49;100.00;101669.84;5097662;28;20039;-38
2023/05/07 11:16:19;;;;;;;13.77;6.72;;;;;;;19.48;100.00;101673.69;5093543;28;20043;-37
2023/05/07 11:18:53;;;;;;;8.48;6.30;;;;;;;19.53;100.00;101676.44;5093277;28;20051;-37
2023/05/07 11:21:39;;;;;;;6.88;6.25;;;;;;;19.50;100.00;101663.25;5094902;28;20028;-38
2023/05/07 11:24:06;;;;;;;7.43;6.55;;;;;;;19.62;100.00;101674.84;5113498;28;20027;-37
2023/05/07 11:26:43;;;;;;;7.38;6.40;;;;;;;19.67;100.00;101674.03;5099646;28;20032;-37
2023/05/07 11:29:19;;;;;;;6.65;5.88;;;;;;;19.74;100.00;101675.41;5094218;28;20051;-37